sensor_id;sensor_type;location;lat;lon;timestamp;P1;durP1;ratioP1;P2;durP2;ratioP2
21589;SDS011;10957;50.968;6.828;2023-02-18T00:02:24;2.58;;;2.47;;
21589;SDS011;10957;50.968;6.828;2023-02-18T00:07:26;2.70;;;2.50;;
21589;SDS011;10957;50.968;6.828;2023-02-18T00:12:27;1.88;;;1.83;;
21589;SDS011;10957;50.968;6.828;2023-02-18T00:17:30;2.10;;;2.00;;
21589;SDS011;10957;50.968;6.828;2023-02-18T00:22:32;2.20;;;2.10;;
21589;SDS011;10957;50.968;6.828;2023-02-18T00:27:33;2.45;;;2.35;;
21589;SDS011;10957;50.968;6.828;2023-02-18T00:32:35;2.67;;;2.58;;
21589;SDS011;10957;50.968;6.828;2023-02-18T00:37:36;2.10;;;2.00;;
21589;SDS011;10957;50.968;6.828;2023-02-18T00:42:38;2.33;;;2.22;;
21589;SDS011;10957;50.968;6.828;2023-02-18T00:47:39;2.15;;;2.05;;
21589;SDS011;10957;50.968;6.828;2023-02-18T00:52:40;2.30;;;2.20;;
21589;SDS011;10957;50.968;6.828;2023-02-18T00:57:42;2.30;;;2.20;;
21589;SDS011;10957;50.968;6.828;2023-02-18T01:02:43;2.55;;;2.45;;
21589;SDS011;10957;50.968;6.828;2023-02-18T01:07:44;2.30;;;2.20;;
21589;SDS011;10957;50.968;6.828;2023-02-18T01:12:46;2.20;;;2.10;;
21589;SDS011;10957;50.968;6.828;2023-02-18T01:17:47;2.28;;;2.17;;
21589;SDS011;10957;50.968;6.828;2023-02-18T01:22:48;2.55;;;2.45;;
21589;SDS011;10957;50.968;6.828;2023-02-18T01:27:50;2.38;;;2.28;;
21589;SDS011;10957;50.968;6.828;2023-02-18T01:32:51;2.53;;;2.42;;
21589;SDS011;10957;50.968;6.828;2023-02-18T01:37:52;2.30;;;2.20;;
21589;SDS011;10957;50.968;6.828;2023-02-18T01:42:54;2.10;;;2.00;;
21589;SDS011;10957;50.968;6.828;2023-02-18T01:47:55;2.30;;;2.20;;
21589;SDS011;10957;50.968;6.828;2023-02-18T01:52:57;2.60;;;2.50;;
21589;SDS011;10957;50.968;6.828;2023-02-18T01:57:58;2.05;;;1.95;;
21589;SDS011;10957;50.968;6.828;2023-02-18T02:03:00;2.10;;;2.00;;
21589;SDS011;10957;50.968;6.828;2023-02-18T02:08:01;1.95;;;1.90;;
21589;SDS011;10957;50.968;6.828;2023-02-18T02:13:11;2.28;;;2.17;;
21589;SDS011;10957;50.968;6.828;2023-02-18T02:18:28;2.15;;;2.05;;
21589;SDS011;10957;50.968;6.828;2023-02-18T02:23:45;2.30;;;2.20;;
21589;SDS011;10957;50.968;6.828;2023-02-18T02:45:02;2.38;;;2.28;;
21589;SDS011;10957;50.968;6.828;2023-02-18T02:50:25;2.05;;;1.95;;
21589;SDS011;10957;50.968;6.828;2023-02-18T02:55:32;2.15;;;2.05;;
21589;SDS011;10957;50.968;6.828;2023-02-18T03:00:46;2.35;;;2.25;;
21589;SDS011;10957;50.968;6.828;2023-02-18T03:11:34;1.85;;;1.85;;
21589;SDS011;10957;50.968;6.828;2023-02-18T03:22:04;2.65;;;2.53;;
21589;SDS011;10957;50.968;6.828;2023-02-18T03:27:13;1.80;;;1.80;;
21589;SDS011;10957;50.968;6.828;2023-02-18T03:32:24;2.00;;;1.90;;
21589;SDS011;10957;50.968;6.828;2023-02-18T03:37:26;6.47;;;3.10;;
21589;SDS011;10957;50.968;6.828;2023-02-18T03:42:31;2.10;;;2.00;;
21589;SDS011;10957;50.968;6.828;2023-02-18T03:47:32;2.00;;;1.90;;
21589;SDS011;10957;50.968;6.828;2023-02-18T03:52:34;2.10;;;2.00;;
21589;SDS011;10957;50.968;6.828;2023-02-18T03:57:36;2.10;;;2.00;;
21589;SDS011;10957;50.968;6.828;2023-02-18T04:02:37;3.65;;;2.20;;
21589;SDS011;10957;50.968;6.828;2023-02-18T04:07:39;2.00;;;1.90;;
21589;SDS011;10957;50.968;6.828;2023-02-18T04:12:40;1.95;;;1.90;;
21589;SDS011;10957;50.968;6.828;2023-02-18T04:17:41;1.80;;;1.80;;
21589;SDS011;10957;50.968;6.828;2023-02-18T04:22:42;1.80;;;1.80;;
21589;SDS011;10957;50.968;6.828;2023-02-18T04:27:44;2.08;;;1.98;;
21589;SDS011;10957;50.968;6.828;2023-02-18T04:32:45;1.70;;;1.70;;
21589;SDS011;10957;50.968;6.828;2023-02-18T04:37:46;1.70;;;1.70;;
21589;SDS011;10957;50.968;6.828;2023-02-18T04:42:47;2.00;;;1.90;;
21589;SDS011;10957;50.968;6.828;2023-02-18T04:47:48;1.60;;;1.60;;
21589;SDS011;10957;50.968;6.828;2023-02-18T04:52:49;1.60;;;1.60;;
21589;SDS011;10957;50.968;6.828;2023-02-18T04:57:51;1.60;;;1.60;;
21589;SDS011;10957;50.968;6.828;2023-02-18T05:02:52;2.03;;;1.92;;
21589;SDS011;10957;50.968;6.828;2023-02-18T05:07:53;1.60;;;1.60;;
21589;SDS011;10957;50.968;6.828;2023-02-18T05:12:54;1.60;;;1.60;;
21589;SDS011;10957;50.968;6.828;2023-02-18T05:17:55;2.10;;;2.00;;
21589;SDS011;10957;50.968;6.828;2023-02-18T05:22:57;1.60;;;1.60;;
21589;SDS011;10957;50.968;6.828;2023-02-18T05:27:58;1.70;;;1.70;;
21589;SDS011;10957;50.968;6.828;2023-02-18T05:32:59;1.80;;;1.80;;
21589;SDS011;10957;50.968;6.828;2023-02-18T05:38:00;1.58;;;1.58;;
21589;SDS011;10957;50.968;6.828;2023-02-18T05:43:01;1.60;;;1.60;;
21589;SDS011;10957;50.968;6.828;2023-02-18T05:48:02;1.60;;;1.60;;
21589;SDS011;10957;50.968;6.828;2023-02-18T05:53:04;1.60;;;1.60;;
21589;SDS011;10957;50.968;6.828;2023-02-18T05:58:05;1.70;;;1.70;;
21589;SDS011;10957;50.968;6.828;2023-02-18T06:03:06;1.52;;;1.52;;
21589;SDS011;10957;50.968;6.828;2023-02-18T06:08:08;1.50;;;1.50;;
21589;SDS011;10957;50.968;6.828;2023-02-18T06:13:09;1.70;;;1.70;;
21589;SDS011;10957;50.968;6.828;2023-02-18T06:18:10;1.83;;;1.73;;
21589;SDS011;10957;50.968;6.828;2023-02-18T06:23:11;1.80;;;1.70;;
21589;SDS011;10957;50.968;6.828;2023-02-18T06:28:13;1.60;;;1.60;;
21589;SDS011;10957;50.968;6.828;2023-02-18T06:33:14;1.50;;;1.50;;
21589;SDS011;10957;50.968;6.828;2023-02-18T06:38:15;1.40;;;1.40;;
21589;SDS011;10957;50.968;6.828;2023-02-18T06:43:17;1.58;;;1.58;;
21589;SDS011;10957;50.968;6.828;2023-02-18T06:48:18;1.40;;;1.40;;
21589;SDS011;10957;50.968;6.828;2023-02-18T06:53:20;1.67;;;1.67;;
21589;SDS011;10957;50.968;6.828;2023-02-18T06:58:21;1.60;;;1.60;;
21589;SDS011;10957;50.968;6.828;2023-02-18T07:03:22;1.60;;;1.60;;
21589;SDS011;10957;50.968;6.828;2023-02-18T07:08:24;2.00;;;1.90;;
21589;SDS011;10957;50.968;6.828;2023-02-18T07:13:25;1.50;;;1.50;;
21589;SDS011;10957;50.968;6.828;2023-02-18T07:18:26;1.60;;;1.60;;
21589;SDS011;10957;50.968;6.828;2023-02-18T07:23:28;1.73;;;1.73;;
21589;SDS011;10957;50.968;6.828;2023-02-18T07:28:29;2.03;;;1.92;;
21589;SDS011;10957;50.968;6.828;2023-02-18T07:33:30;1.63;;;1.63;;
21589;SDS011;10957;50.968;6.828;2023-02-18T07:38:31;1.95;;;1.85;;
21589;SDS011;10957;50.968;6.828;2023-02-18T07:43:32;1.88;;;1.83;;
21589;SDS011;10957;50.968;6.828;2023-02-18T07:48:34;2.40;;;2.30;;
21589;SDS011;10957;50.968;6.828;2023-02-18T07:53:36;1.60;;;1.60;;
21589;SDS011;10957;50.968;6.828;2023-02-18T07:58:38;1.70;;;1.70;;
21589;SDS011;10957;50.968;6.828;2023-02-18T08:03:39;1.60;;;1.60;;
21589;SDS011;10957;50.968;6.828;2023-02-18T08:08:41;1.60;;;1.60;;
21589;SDS011;10957;50.968;6.828;2023-02-18T08:13:42;2.30;;;2.20;;
21589;SDS011;10957;50.968;6.828;2023-02-18T08:18:43;2.05;;;1.95;;
21589;SDS011;10957;50.968;6.828;2023-02-18T08:23:44;2.10;;;2.00;;
21589;SDS011;10957;50.968;6.828;2023-02-18T08:28:46;2.40;;;2.30;;
21589;SDS011;10957;50.968;6.828;2023-02-18T08:33:48;2.58;;;2.47;;
21589;SDS011;10957;50.968;6.828;2023-02-18T08:38:49;2.60;;;2.50;;
21589;SDS011;10957;50.968;6.828;2023-02-18T08:43:50;2.80;;;2.70;;
21589;SDS011;10957;50.968;6.828;2023-02-18T08:48:52;2.33;;;2.22;;
21589;SDS011;10957;50.968;6.828;2023-02-18T08:53:53;2.70;;;2.60;;
21589;SDS011;10957;50.968;6.828;2023-02-18T08:58:54;2.80;;;2.70;;
21589;SDS011;10957;50.968;6.828;2023-02-18T09:03:55;2.30;;;2.20;;
21589;SDS011;10957;50.968;6.828;2023-02-18T09:08:56;2.65;;;2.55;;
21589;SDS011;10957;50.968;6.828;2023-02-18T09:13:58;3.20;;;3.00;;
21589;SDS011;10957;50.968;6.828;2023-02-18T09:18:59;2.50;;;2.40;;
21589;SDS011;10957;50.968;6.828;2023-02-18T09:24:00;2.60;;;2.50;;
21589;SDS011;10957;50.968;6.828;2023-02-18T09:29:01;3.42;;;3.22;;
21589;SDS011;10957;50.968;6.828;2023-02-18T09:34:02;2.92;;;2.83;;
21589;SDS011;10957;50.968;6.828;2023-02-18T09:39:04;3.47;;;3.28;;
21589;SDS011;10957;50.968;6.828;2023-02-18T09:44:10;2.80;;;2.70;;
21589;SDS011;10957;50.968;6.828;2023-02-18T09:49:13;2.70;;;2.60;;
21589;SDS011;10957;50.968;6.828;2023-02-18T13:17:06;1.90;;;1.83;;
21589;SDS011;10957;50.968;6.828;2023-02-18T13:38:53;1.50;;;1.50;;
21589;SDS011;10957;50.968;6.828;2023-02-18T14:11:55;1.67;;;1.67;;
21589;SDS011;10957;50.968;6.828;2023-02-18T14:22:25;1.60;;;1.60;;
21589;SDS011;10957;50.968;6.828;2023-02-18T14:27:43;1.58;;;1.58;;
21589;SDS011;10957;50.968;6.828;2023-02-18T14:32:45;1.55;;;1.55;;
21589;SDS011;10957;50.968;6.828;2023-02-18T14:48:22;1.63;;;1.63;;
21589;SDS011;10957;50.968;6.828;2023-02-18T14:53:26;1.70;;;1.70;;
21589;SDS011;10957;50.968;6.828;2023-02-18T14:58:29;1.50;;;1.50;;
21589;SDS011;10957;50.968;6.828;2023-02-18T15:03:39;1.50;;;1.50;;
21589;SDS011;10957;50.968;6.828;2023-02-18T15:08:41;1.90;;;1.80;;
21589;SDS011;10957;50.968;6.828;2023-02-18T15:13:43;1.70;;;1.70;;
21589;SDS011;10957;50.968;6.828;2023-02-18T15:18:50;1.80;;;1.80;;
21589;SDS011;10957;50.968;6.828;2023-02-18T15:23:58;1.92;;;1.85;;
21589;SDS011;10957;50.968;6.828;2023-02-18T15:29:11;1.73;;;1.73;;
21589;SDS011;10957;50.968;6.828;2023-02-18T15:34:34;2.15;;;2.05;;
21589;SDS011;10957;50.968;6.828;2023-02-18T15:39:37;1.80;;;1.80;;
21589;SDS011;10957;50.968;6.828;2023-02-18T15:44:43;1.90;;;1.83;;
21589;SDS011;10957;50.968;6.828;2023-02-18T15:49:54;2.10;;;2.00;;
21589;SDS011;10957;50.968;6.828;2023-02-18T15:55:20;1.88;;;1.83;;
21589;SDS011;10957;50.968;6.828;2023-02-18T16:00:51;2.40;;;2.30;;
21589;SDS011;10957;50.968;6.828;2023-02-18T16:06:11;1.95;;;1.90;;
21589;SDS011;10957;50.968;6.828;2023-02-18T16:11:18;2.40;;;2.30;;
21589;SDS011;10957;50.968;6.828;2023-02-18T16:16:32;1.80;;;1.80;;
21589;SDS011;10957;50.968;6.828;2023-02-18T16:21:36;2.03;;;1.95;;
21589;SDS011;10957;50.968;6.828;2023-02-18T16:26:41;2.00;;;1.90;;
21589;SDS011;10957;50.968;6.828;2023-02-18T16:31:44;1.70;;;1.70;;
21589;SDS011;10957;50.968;6.828;2023-02-18T16:36:45;1.80;;;1.77;;
21589;SDS011;10957;50.968;6.828;2023-02-18T16:42:11;2.00;;;1.90;;
21589;SDS011;10957;50.968;6.828;2023-02-18T16:47:16;2.42;;;2.33;;
21589;SDS011;10957;50.968;6.828;2023-02-18T16:52:18;2.20;;;2.10;;
21589;SDS011;10957;50.968;6.828;2023-02-18T16:57:20;1.70;;;1.70;;
21589;SDS011;10957;50.968;6.828;2023-02-18T17:02:21;1.77;;;1.77;;
21589;SDS011;10957;50.968;6.828;2023-02-18T17:07:23;2.30;;;2.20;;
21589;SDS011;10957;50.968;6.828;2023-02-18T17:12:24;2.45;;;2.35;;
21589;SDS011;10957;50.968;6.828;2023-02-18T17:17:25;2.30;;;2.20;;
21589;SDS011;10957;50.968;6.828;2023-02-18T17:22:27;2.55;;;2.45;;
21589;SDS011;10957;50.968;6.828;2023-02-18T17:27:29;2.65;;;2.55;;
21589;SDS011;10957;50.968;6.828;2023-02-18T17:32:30;2.40;;;2.30;;
21589;SDS011;10957;50.968;6.828;2023-02-18T17:37:31;2.00;;;1.90;;
21589;SDS011;10957;50.968;6.828;2023-02-18T17:42:32;1.70;;;1.70;;
21589;SDS011;10957;50.968;6.828;2023-02-18T17:47:35;2.10;;;2.00;;
21589;SDS011;10957;50.968;6.828;2023-02-18T17:52:36;2.72;;;2.53;;
21589;SDS011;10957;50.968;6.828;2023-02-18T17:57:38;2.10;;;2.00;;
21589;SDS011;10957;50.968;6.828;2023-02-18T18:02:40;5.38;;;2.78;;
21589;SDS011;10957;50.968;6.828;2023-02-18T18:07:41;2.45;;;2.35;;
21589;SDS011;10957;50.968;6.828;2023-02-18T18:12:42;2.28;;;2.17;;
21589;SDS011;10957;50.968;6.828;2023-02-18T18:17:43;1.85;;;1.80;;
21589;SDS011;10957;50.968;6.828;2023-02-18T18:22:45;1.70;;;1.70;;
21589;SDS011;10957;50.968;6.828;2023-02-18T18:27:46;1.90;;;1.80;;
21589;SDS011;10957;50.968;6.828;2023-02-18T18:32:50;2.42;;;2.33;;
21589;SDS011;10957;50.968;6.828;2023-02-18T18:37:51;2.20;;;2.10;;
21589;SDS011;10957;50.968;6.828;2023-02-18T18:42:54;2.25;;;2.15;;
21589;SDS011;10957;50.968;6.828;2023-02-18T18:47:56;1.73;;;1.73;;
21589;SDS011;10957;50.968;6.828;2023-02-18T18:52:57;2.65;;;2.55;;
21589;SDS011;10957;50.968;6.828;2023-02-18T18:57:58;2.30;;;2.20;;
21589;SDS011;10957;50.968;6.828;2023-02-18T19:03:00;2.42;;;2.30;;
21589;SDS011;10957;50.968;6.828;2023-02-18T19:08:02;2.55;;;2.40;;
21589;SDS011;10957;50.968;6.828;2023-02-18T19:18:16;2.50;;;2.40;;
21589;SDS011;10957;50.968;6.828;2023-02-18T19:23:18;2.65;;;2.53;;
21589;SDS011;10957;50.968;6.828;2023-02-18T19:28:20;2.50;;;2.40;;
21589;SDS011;10957;50.968;6.828;2023-02-18T19:33:21;2.30;;;2.20;;
21589;SDS011;10957;50.968;6.828;2023-02-18T19:38:22;2.50;;;2.40;;
21589;SDS011;10957;50.968;6.828;2023-02-18T19:43:23;2.38;;;2.28;;
21589;SDS011;10957;50.968;6.828;2023-02-18T19:48:24;2.53;;;2.42;;
21589;SDS011;10957;50.968;6.828;2023-02-18T19:53:26;2.40;;;2.30;;
21589;SDS011;10957;50.968;6.828;2023-02-18T19:58:27;2.35;;;2.25;;
21589;SDS011;10957;50.968;6.828;2023-02-18T20:03:29;2.50;;;2.30;;
21589;SDS011;10957;50.968;6.828;2023-02-18T20:08:30;2.17;;;2.08;;
21589;SDS011;10957;50.968;6.828;2023-02-18T20:13:36;2.70;;;2.60;;
21589;SDS011;10957;50.968;6.828;2023-02-18T20:18:37;2.67;;;2.58;;
21589;SDS011;10957;50.968;6.828;2023-02-18T20:23:38;3.30;;;3.10;;
21589;SDS011;10957;50.968;6.828;2023-02-18T20:28:40;3.33;;;3.00;;
21589;SDS011;10957;50.968;6.828;2023-02-18T20:33:41;2.30;;;2.20;;
21589;SDS011;10957;50.968;6.828;2023-02-18T20:38:43;2.03;;;1.92;;
21589;SDS011;10957;50.968;6.828;2023-02-18T20:43:48;2.10;;;2.00;;
21589;SDS011;10957;50.968;6.828;2023-02-18T20:48:49;2.25;;;2.15;;
21589;SDS011;10957;50.968;6.828;2023-02-18T20:53:51;2.70;;;2.60;;
21589;SDS011;10957;50.968;6.828;2023-02-18T20:58:52;2.10;;;2.00;;
21589;SDS011;10957;50.968;6.828;2023-02-18T21:03:53;2.42;;;2.33;;
21589;SDS011;10957;50.968;6.828;2023-02-18T21:08:54;2.20;;;2.10;;
21589;SDS011;10957;50.968;6.828;2023-02-18T21:13:56;2.35;;;2.25;;
21589;SDS011;10957;50.968;6.828;2023-02-18T21:18:58;2.60;;;2.50;;
21589;SDS011;10957;50.968;6.828;2023-02-18T21:23:59;2.25;;;2.15;;
21589;SDS011;10957;50.968;6.828;2023-02-18T21:29:01;2.20;;;2.10;;
21589;SDS011;10957;50.968;6.828;2023-02-18T21:34:05;2.25;;;2.15;;
21589;SDS011;10957;50.968;6.828;2023-02-18T21:39:09;2.35;;;2.25;;
21589;SDS011;10957;50.968;6.828;2023-02-18T21:44:10;2.20;;;2.10;;
21589;SDS011;10957;50.968;6.828;2023-02-18T21:49:11;2.20;;;2.10;;
21589;SDS011;10957;50.968;6.828;2023-02-18T21:54:20;2.17;;;2.08;;
21589;SDS011;10957;50.968;6.828;2023-02-18T21:59:28;2.28;;;2.17;;
21589;SDS011;10957;50.968;6.828;2023-02-18T22:04:30;2.20;;;2.10;;
21589;SDS011;10957;50.968;6.828;2023-02-18T22:09:33;2.05;;;1.95;;
21589;SDS011;10957;50.968;6.828;2023-02-18T22:14:35;2.58;;;2.47;;
21589;SDS011;10957;50.968;6.828;2023-02-18T22:19:37;2.00;;;1.90;;
21589;SDS011;10957;50.968;6.828;2023-02-18T22:24:38;1.98;;;1.90;;
21589;SDS011;10957;50.968;6.828;2023-02-18T22:29:40;2.25;;;2.15;;
21589;SDS011;10957;50.968;6.828;2023-02-18T22:34:41;2.30;;;2.20;;
21589;SDS011;10957;50.968;6.828;2023-02-18T22:39:42;2.40;;;2.30;;
21589;SDS011;10957;50.968;6.828;2023-02-18T22:44:43;2.70;;;2.60;;
21589;SDS011;10957;50.968;6.828;2023-02-18T22:49:44;2.40;;;2.30;;
21589;SDS011;10957;50.968;6.828;2023-02-18T22:54:46;2.13;;;2.03;;
21589;SDS011;10957;50.968;6.828;2023-02-18T22:59:47;2.20;;;2.10;;
21589;SDS011;10957;50.968;6.828;2023-02-18T23:04:48;2.10;;;2.00;;
21589;SDS011;10957;50.968;6.828;2023-02-18T23:09:49;2.40;;;2.30;;
21589;SDS011;10957;50.968;6.828;2023-02-18T23:14:50;2.20;;;2.10;;
21589;SDS011;10957;50.968;6.828;2023-02-18T23:19:52;2.28;;;2.17;;
21589;SDS011;10957;50.968;6.828;2023-02-18T23:24:56;2.70;;;2.60;;
21589;SDS011;10957;50.968;6.828;2023-02-18T23:29:58;2.30;;;2.20;;
21589;SDS011;10957;50.968;6.828;2023-02-18T23:34:59;1.83;;;1.80;;
21589;SDS011;10957;50.968;6.828;2023-02-18T23:40:00;2.40;;;2.30;;
21589;SDS011;10957;50.968;6.828;2023-02-18T23:45:01;2.10;;;2.00;;
21589;SDS011;10957;50.968;6.828;2023-02-18T23:50:02;2.10;;;2.00;;
21589;SDS011;10957;50.968;6.828;2023-02-18T23:55:04;2.20;;;2.10;;
